Time;durP1;ratioP1;P1;durP2;ratioP2;P2;SDS_P1;SDS_P2;PMS_P1;PMS_P2;Temp;Humidity;BMP_temperature;BMP_pressure;BME280_temperature;BME280_humidity;BME280_pressure;Samples;Min_cycle;Max_cycle;Signal;HPM_P1;HPM_P2
2021/10/17 00:00:30;;;;;;;11.05;5.75;;;;;;;8.71;73.76;102180.31;5052662;28;20024;-61
2021/10/17 00:02:56;;;;;;;8.53;5.50;;;;;;;8.74;73.66;102178.28;5052842;28;20469;-62
2021/10/17 00:05:25;;;;;;;11.18;5.15;;;;;;;8.71;74.48;102175.84;5052664;28;20044;-63
2021/10/17 00:07:51;;;;;;;12.37;5.30;;;;;;;8.67;74.07;102178.81;5052570;28;20025;-62
2021/10/17 00:10:19;;;;;;;14.95;5.78;;;;;;;8.64;74.17;102182.53;5052219;28;20028;-62
2021/10/17 00:12:45;;;;;;;14.17;6.30;;;;;;;8.61;73.56;102178.25;5052477;28;20048;-69
2021/10/17 00:15:13;;;;;;;;;;;;;;;8.62;74.33;102176.47;5052806;28;20027;-68
2021/10/17 00:17:39;;;;;;;8.75;5.07;;;;;;;8.62;73.81;102174.66;5052659;28;19913;-70
2021/10/17 00:20:08;;;;;;;11.73;4.90;;;;;;;8.63;74.11;102171.06;5052253;28;20021;-69
2021/10/17 00:22:33;;;;;;;10.57;5.90;;;;;;;8.62;74.57;102174.66;5052242;28;20384;-70
2021/10/17 00:25:00;;;;;;;9.23;5.00;;;;;;;8.59;74.87;102180.19;5051970;28;20049;-62
2021/10/17 00:27:25;;;;;;;;;;;;;;;8.60;75.34;102173.06;5052306;28;20021;-62
2021/10/17 00:29:50;;;;;;;10.20;5.87;;;;;;;8.57;74.90;102170.63;5050776;28;19958;-62
2021/10/17 00:32:15;;;;;;;7.20;5.30;;;;;;;8.55;75.42;102173.41;5052087;28;20063;-63
2021/10/17 00:34:41;;;;;;;9.47;5.40;;;;;;;8.58;74.15;102172.34;5052074;28;20039;-64
2021/10/17 00:37:07;;;;;;;11.90;6.03;;;;;;;8.62;73.82;102174.66;5033930;28;20302;-62
2021/10/17 00:39:33;;;;;;;10.25;5.70;;;;;;;8.66;74.40;102177.13;5051967;28;20395;-62
2021/10/17 00:42:01;;;;;;;;;;;;;;;8.66;74.80;102171.81;5052110;28;20025;-65
2021/10/17 00:44:26;;;;;;;8.73;4.65;;;;;;;8.67;75.04;102176.16;5033755;28;20391;-62
2021/10/17 00:46:52;;;;;;;10.73;5.90;;;;;;;8.66;75.07;102175.31;5051571;28;20032;-63
2021/10/17 00:49:19;;;;;;;12.47;5.03;;;;;;;8.66;74.31;102177.97;5051788;28;20017;-64
2021/10/17 00:51:45;;;;;;;17.77;6.00;;;;;;;8.70;73.55;102171.47;5051690;28;20264;-68
2021/10/17 00:54:11;;;;;;;9.75;5.38;;;;;;;8.74;74.06;102164.16;5051774;28;20025;-62
2021/10/17 00:56:37;;;;;;;8.67;5.30;;;;;;;8.74;73.12;102164.97;5051218;28;20033;-69
2021/10/17 00:59:06;;;;;;;12.38;5.35;;;;;;;8.76;73.22;102154.25;5051187;28;20116;-62
2021/10/17 01:01:31;;;;;;;6.00;4.83;;;;;;;8.83;72.63;102168.81;5051424;28;20017;-62
2021/10/17 01:03:56;;;;;;;13.43;5.40;;;;;;;8.87;72.42;102154.34;5051391;28;20035;-62
2021/10/17 01:06:22;;;;;;;10.73;4.60;;;;;;;8.90;72.10;102162.09;5033358;28;20035;-62
2021/10/17 01:08:47;;;;;;;12.25;5.95;;;;;;;8.94;72.13;102154.75;5051309;28;20064;-63
2021/10/17 01:11:13;;;;;;;14.27;5.20;;;;;;;8.97;71.79;102155.41;5051312;28;20043;-62
2021/10/17 01:13:38;;;;;;;8.60;4.80;;;;;;;9.00;72.49;102153.50;5051052;28;20021;-62
2021/10/17 01:16:04;;;;;;;8.90;5.30;;;;;;;9.00;73.22;102145.53;5051155;28;20038;-63
2021/10/17 01:18:30;;;;;;;14.35;6.45;;;;;;;8.97;72.73;102144.75;5051102;28;20021;-64
2021/10/17 01:20:56;;;;;;;12.80;5.60;;;;;;;9.00;71.95;102148.19;5051268;28;20025;-62
2021/10/17 01:23:21;;;;;;;12.80;5.60;;;;;;;8.99;72.55;102144.66;5050615;28;20025;-61
2021/10/17 01:25:47;;;;;;;10.70;5.85;;;;;;;9.00;72.28;102148.19;5050529;28;20060;-63
2021/10/17 01:28:13;;;;;;;11.18;5.63;;;;;;;8.99;72.91;102149.13;5050744;28;20087;-62
2021/10/17 01:30:39;;;;;;;9.82;5.15;;;;;;;8.97;73.30;102139.44;5050928;28;20391;-72
2021/10/17 01:33:04;;;;;;;11.57;5.30;;;;;;;8.94;72.82;102145.00;5050789;28;20032;-66
2021/10/17 01:35:30;;;;;;;15.18;6.43;;;;;;;8.94;73.80;102144.13;5050976;28;20052;-62
2021/10/17 01:37:55;;;;;;;11.13;5.53;;;;;;;8.93;74.18;102143.28;5050983;28;20056;-62
2021/10/17 01:40:22;;;;;;;8.63;4.97;;;;;;;8.90;74.04;102143.47;5050520;28;20730;-62
2021/10/17 01:42:47;;;;;;;12.20;5.70;;;;;;;8.91;73.59;102152.34;5050652;28;20025;-62
2021/10/17 01:45:12;;;;;;;15.90;5.93;;;;;;;8.89;73.23;102144.47;5050672;28;20029;-66
2021/10/17 01:47:44;;;;;;;9.67;5.27;;;;;;;8.91;72.67;102131.91;5050531;28;20284;-63
2021/10/17 01:50:10;;;;;;;10.57;5.63;;;;;;;8.95;72.91;102133.38;5050866;28;20100;-66
2021/10/17 01:52:35;;;;;;;11.60;6.03;;;;;;;8.97;73.07;102138.63;5050753;28;20117;-62
2021/10/17 01:55:00;;;;;;;8.33;5.37;;;;;;;9.00;72.60;102142.88;5050426;28;20619;-68
2021/10/17 01:57:26;;;;;;;10.27;5.80;;;;;;;8.96;73.55;102134.25;5050676;28;20033;-64
2021/10/17 01:59:51;;;;;;;10.67;5.50;;;;;;;8.93;73.80;102140.63;5050367;28;20040;-64
2021/10/17 02:02:16;;;;;;;8.37;5.73;;;;;;;8.91;72.66;102134.56;5050367;28;20033;-65
2021/10/17 02:04:41;;;;;;;14.60;6.40;;;;;;;8.93;72.53;102135.31;5050716;28;20496;-62
2021/10/17 02:07:07;;;;;;;12.40;5.83;;;;;;;8.96;72.24;102127.09;5050320;28;20033;-61
2021/10/17 02:09:32;;;;;;;15.53;6.10;;;;;;;8.95;73.18;102128.06;5050529;28;20036;-62
2021/10/17 02:11:57;;;;;;;10.37;5.10;;;;;;;8.94;73.51;102133.50;5050449;28;20033;-66
2021/10/17 02:14:23;;;;;;;12.30;5.67;;;;;;;8.91;73.21;102126.59;5050149;28;20032;-69
2021/10/17 02:16:48;;;;;;;10.33;5.23;;;;;;;8.91;73.09;102134.56;5050253;28;20025;-63
2021/10/17 02:19:14;;;;;;;12.20;6.10;;;;;;;8.92;73.46;102136.25;5050135;28;20052;-63
2021/10/17 02:21:39;;;;;;;9.40;5.93;;;;;;;8.93;73.63;102140.63;5050324;28;20029;-62
2021/10/17 02:24:05;;;;;;;10.77;5.83;;;;;;;8.88;74.21;102132.13;5049784;28;20040;-62
2021/10/17 02:26:31;;;;;;;11.33;5.90;;;;;;;8.86;73.87;102134.03;5050016;28;20083;-62
2021/10/17 02:28:56;;;;;;;9.13;5.13;;;;;;;8.87;74.68;102129.59;5050375;28;20021;-72
2021/10/17 02:31:22;;;;;;;12.05;6.07;;;;;;;8.84;74.38;102128.00;5050065;28;20060;-65
2021/10/17 02:33:47;;;;;;;14.02;5.65;;;;;;;8.84;74.49;102124.47;5049967;28;20029;-66
2021/10/17 02:36:13;;;;;;;10.33;5.73;;;;;;;8.83;73.76;102126.28;5050280;28;20484;-62
2021/10/17 02:38:38;;;;;;;15.95;5.88;;;;;;;8.84;73.61;102122.69;5050027;28;20429;-61
2021/10/17 02:41:04;;;;;;;11.70;5.60;;;;;;;8.90;72.86;102122.22;5050221;28;20029;-62
2021/10/17 02:43:29;;;;;;;10.57;5.40;;;;;;;8.93;73.13;102126.47;5050321;28;20276;-62
2021/10/17 02:45:54;;;;;;;14.40;6.05;;;;;;;8.94;72.78;102130.84;5049861;28;20032;-64
2021/10/17 02:48:20;;;;;;;10.67;5.47;;;;;;;8.94;73.75;102121.06;5050010;28;20033;-63
2021/10/17 02:50:46;;;;;;;10.98;6.20;;;;;;;8.93;73.35;102124.69;5049954;28;20044;-62
2021/10/17 02:53:11;;;;;;;14.03;5.47;;;;;;;8.94;72.51;102120.19;5052848;28;20017;-62
2021/10/17 02:55:37;;;;;;;12.47;5.53;;;;;;;8.97;72.07;102106.72;5053697;28;20314;-63
2021/10/17 02:58:02;;;;;;;11.73;5.65;;;;;;;8.97;72.42;102112.03;5053924;28;20029;-63
2021/10/17 03:00:28;;;;;;;11.70;5.97;;;;;;;8.98;72.29;102105.72;5054107;28;20176;-63
2021/10/17 03:02:53;;;;;;;13.82;5.70;;;;;;;8.99;72.08;102110.09;5053665;28;20027;-61
2021/10/17 03:05:19;;;;;;;11.53;7.10;;;;;;;9.01;71.70;102100.19;5052988;28;20377;-61
2021/10/17 03:07:44;;;;;;;14.88;6.70;;;;;;;9.03;70.89;102105.41;5053506;28;20064;-61
2021/10/17 03:10:10;;;;;;;13.50;6.57;;;;;;;9.02;71.75;102098.38;5053643;28;20120;-63
2021/10/17 03:12:35;;;;;;;14.57;6.13;;;;;;;9.01;71.81;102102.00;5053408;28;20028;-62
2021/10/17 03:15:03;;;;;;;12.85;6.18;;;;;;;9.03;71.22;102094.78;5053439;28;20082;-61
2021/10/17 03:17:28;;;;;;;15.17;7.23;;;;;;;9.03;70.99;102095.59;5052931;28;20060;-62
2021/10/17 03:19:54;;;;;;;13.80;6.57;;;;;;;9.03;70.81;102095.59;5053137;28;20108;-61
2021/10/17 03:22:19;;;;;;;12.45;6.15;;;;;;;9.05;71.29;102104.34;5053633;28;20029;-62
2021/10/17 03:24:44;;;;;;;14.63;7.10;;;;;;;9.03;71.61;102098.25;5057821;22;20140;-62
2021/10/17 03:27:09;;;;;;;12.43;7.20;;;;;;;9.03;71.46;102097.44;5033435;28;20033;-62
2021/10/17 03:29:35;;;;;;;21.07;7.10;;;;;;;9.00;71.40;102100.31;5033385;28;20026;-61
2021/10/17 03:32:00;;;;;;;12.43;7.53;;;;;;;8.98;72.43;102089.78;5033286;28;20037;-66
2021/10/17 03:34:27;;;;;;;12.85;6.57;;;;;;;8.97;71.59;102088.09;5015570;28;20480;-63
2021/10/17 03:36:52;;;;;;;;;;;;;;;9.01;71.55;102096.69;5033568;28;20022;-62
2021/10/17 03:39:17;;;;;;;13.37;7.70;;;;;;;9.00;71.89;102095.00;5033362;28;19924;-63
2021/10/17 03:41:43;;;;;;;13.23;7.27;;;;;;;9.02;71.08;102085.97;5033231;28;20396;-62
2021/10/17 03:44:08;;;;;;;16.60;7.83;;;;;;;9.05;71.09;102090.16;5033021;28;20030;-63
2021/10/17 03:46:33;;;;;;;18.07;7.00;;;;;;;9.05;71.00;102082.19;5033083;28;20113;-65
2021/10/17 03:48:58;;;;;;;19.27;7.60;;;;;;;9.03;70.92;102079.66;5032739;28;20112;-62
2021/10/17 03:51:25;;;;;;;13.13;6.83;;;;;;;9.03;71.47;102081.47;5032864;28;20026;-64
2021/10/17 03:53:50;;;;;;;;;;;;;;;9.05;71.38;102077.75;5033266;28;20029;-62
2021/10/17 03:56:15;;;;;;;15.30;7.37;;;;;;;9.04;71.25;102075.19;5014825;28;19924;-65
2021/10/17 03:58:41;;;;;;;15.20;7.97;;;;;;;9.04;71.20;102075.19;5032897;28;20022;-64
2021/10/17 04:01:06;;;;;;;14.87;7.23;;;;;;;9.05;71.35;102075.09;5032776;28;20588;-62
2021/10/17 04:03:31;;;;;;;17.37;7.37;;;;;;;9.06;71.01;102073.25;5032229;28;20029;-64
2021/10/17 04:05:57;;;;;;;19.33;7.47;;;;;;;9.06;71.81;102082.09;5032670;28;20029;-62
2021/10/17 04:08:22;;;;;;;15.90;8.47;;;;;;;9.04;70.99;102083.19;5032406;28;20060;-63
2021/10/17 04:10:47;;;;;;;13.37;7.83;;;;;;;9.04;71.54;102069.88;5032721;28;20116;-62
2021/10/17 04:13:13;;;;;;;18.87;7.57;;;;;;;9.04;72.16;102083.19;5032382;28;20034;-62
2021/10/17 04:15:38;;;;;;;19.95;9.10;;;;;;;9.02;71.44;102067.34;5032518;28;20037;-62
2021/10/17 04:18:04;;;;;;;19.67;8.63;;;;;;;9.04;71.50;102068.06;5032230;28;20491;-68
2021/10/17 04:20:30;;;;;;;17.45;8.35;;;;;;;9.08;71.30;102066.03;5032441;28;20023;-62
2021/10/17 04:22:56;;;;;;;19.90;8.03;;;;;;;9.06;71.70;102070.59;5032164;28;20106;-64
2021/10/17 04:25:21;;;;;;;20.83;8.90;;;;;;;9.05;71.62;102072.44;5031757;28;20690;-63
2021/10/17 04:27:48;;;;;;;17.47;8.57;;;;;;;9.05;70.99;102060.91;5032317;28;20029;-64
2021/10/17 04:30:14;;;;;;;21.17;8.47;;;;;;;9.06;71.41;102058.19;5032039;28;20029;-66
2021/10/17 04:32:39;;;;;;;;;;;;;;;9.09;71.15;102063.25;5032633;28;20037;-62
2021/10/17 04:35:06;;;;;;;19.63;8.77;;;;;;;9.11;70.70;102060.47;5031905;28;19919;-64
2021/10/17 04:37:32;;;;;;;19.33;9.07;;;;;;;9.11;71.44;102061.34;5032089;28;20037;-63
2021/10/17 04:39:57;;;;;;;20.05;8.50;;;;;;;9.09;71.13;102067.75;5031934;28;20034;-63
2021/10/17 04:42:23;;;;;;;16.77;8.10;;;;;;;9.08;70.82;102074.84;5032044;28;20029;-65
2021/10/17 04:44:48;;;;;;;15.00;8.47;;;;;;;9.11;70.58;102076.44;5031913;28;20021;-63
2021/10/17 04:47:13;;;;;;;17.13;8.83;;;;;;;9.12;70.13;102075.50;5031755;28;20485;-63
2021/10/17 04:49:39;;;;;;;14.37;7.90;;;;;;;9.14;70.72;102073.56;5031492;28;20037;-63
2021/10/17 04:52:04;;;;;;;14.27;7.90;;;;;;;9.16;70.96;102076.97;5031785;28;20045;-61
2021/10/17 04:54:29;;;;;;;23.52;8.55;;;;;;;9.16;70.87;102081.44;5031730;28;20125;-63
2021/10/17 04:56:55;;;;;;;15.90;8.33;;;;;;;9.14;70.68;102077.06;5031673;28;20036;-61
2021/10/17 04:59:23;;;;;;;17.13;9.07;;;;;;;9.14;70.55;102077.06;5031578;28;20503;-62
2021/10/17 05:01:49;;;;;;;20.95;8.70;;;;;;;9.15;71.01;102075.25;5031628;28;20029;-62
2021/10/17 05:04:18;;;;;;;13.70;8.18;;;;;;;9.11;71.48;102077.31;5031450;28;20488;-72
2021/10/17 05:06:43;;;;;;;16.73;8.20;;;;;;;9.12;70.96;102070.16;5031412;28;20025;-62
2021/10/17 05:09:09;;;;;;;16.08;7.30;;;;;;;9.16;70.72;102082.28;5031209;28;20030;-62
2021/10/17 05:11:34;;;;;;;21.17;10.13;;;;;;;9.16;70.56;102081.44;5031550;28;20018;-66
2021/10/17 05:13:59;;;;;;;17.77;8.43;;;;;;;9.15;70.43;102091.22;5031391;28;20029;-62
2021/10/17 05:16:25;;;;;;;13.77;7.87;;;;;;;9.13;70.50;102088.66;5030412;28;20422;-68
2021/10/17 05:18:51;;;;;;;14.43;8.07;;;;;;;9.11;70.88;102079.97;5031032;28;20033;-62
2021/10/17 05:21:16;;;;;;;16.33;9.00;;;;;;;9.13;70.44;102082.50;5030830;28;20022;-62
2021/10/17 05:23:41;;;;;;;18.23;8.27;;;;;;;9.14;70.59;102079.72;5030684;28;20056;-62
2021/10/17 05:26:07;;;;;;;14.33;7.30;;;;;;;9.15;70.71;102077.91;5030766;28;20139;-63
2021/10/17 05:28:32;;;;;;;19.30;6.93;;;;;;;9.15;70.12;102080.56;5031215;28;20496;-63
2021/10/17 05:31:00;;;;;;;15.45;6.50;;;;;;;9.17;70.21;102089.31;5031040;28;20037;-62
2021/10/17 05:33:30;;;;;;;12.17;6.83;;;;;;;9.19;70.34;102076.72;5030986;28;20376;-62
2021/10/17 05:35:55;;;;;;;13.53;7.00;;;;;;;9.22;70.62;102080.97;5030759;28;20033;-62
2021/10/17 05:38:22;;;;;;;11.10;6.23;;;;;;;9.20;70.69;102085.56;5030861;28;20648;-63
2021/10/17 05:40:47;;;;;;;17.43;7.50;;;;;;;9.20;70.28;102094.38;5030868;28;20037;-63
2021/10/17 05:43:12;;;;;;;13.07;6.37;;;;;;;9.23;70.06;102098.63;5031074;28;20484;-62
2021/10/17 05:45:38;;;;;;;13.83;7.03;;;;;;;9.23;70.36;102090.66;5031032;28;20040;-68
2021/10/17 05:48:03;;;;;;;12.93;6.73;;;;;;;9.20;70.89;102096.22;5030812;28;20694;-63
2021/10/17 05:50:28;;;;;;;15.10;6.97;;;;;;;9.17;71.46;102091.13;5031343;28;20044;-62
2021/10/17 05:52:54;;;;;;;14.50;6.77;;;;;;;9.13;71.65;102093.16;5012773;28;20036;-61
2021/10/17 05:55:19;;;;;;;16.63;7.03;;;;;;;9.13;71.56;102094.00;5030365;28;20037;-61
2021/10/17 05:57:45;;;;;;;11.80;6.88;;;;;;;9.15;71.20;102099.19;5030654;28;20052;-61
2021/10/17 06:00:10;;;;;;;13.63;7.43;;;;;;;9.12;71.19;102099.41;5030527;28;20064;-62
2021/10/17 06:02:36;;;;;;;12.27;6.50;;;;;;;9.11;72.04;102105.69;5012814;28;20029;-61
2021/10/17 06:05:02;;;;;;;12.47;7.20;;;;;;;9.11;71.67;102105.69;5030637;28;20036;-64
2021/10/17 06:07:27;;;;;;;15.23;7.85;;;;;;;9.10;71.41;102104.84;5030249;28;20033;-61
2021/10/17 06:09:52;;;;;;;13.83;7.23;;;;;;;9.13;71.11;102104.63;5012754;28;20029;-62
2021/10/17 06:12:18;;;;;;;14.90;7.23;;;;;;;9.18;70.57;102101.66;5030328;28;20013;-62
2021/10/17 06:14:43;;;;;;;16.60;7.23;;;;;;;9.21;70.71;102104.06;5030613;28;20032;-64
2021/10/17 06:17:09;;;;;;;11.70;6.40;;;;;;;9.24;70.50;102109.16;5030601;28;20059;-61
2021/10/17 06:19:34;;;;;;;11.70;6.67;;;;;;;9.27;69.98;102108.94;5030644;28;20378;-61
2021/10/17 06:22:06;;;;;;;14.97;7.10;;;;;;;9.28;70.88;102110.66;5030251;28;20024;-62
2021/10/17 06:24:34;;;;;;;13.02;6.75;;;;;;;9.29;70.26;102120.31;5029948;28;20026;-64
2021/10/17 06:27:00;;;;;;;16.13;7.27;;;;;;;9.33;70.48;102117.44;5032764;28;20033;-65
2021/10/17 06:29:26;;;;;;;14.00;6.28;;;;;;;9.33;70.16;102118.28;5034345;28;20117;-63
2021/10/17 06:31:52;;;;;;;15.23;6.57;;;;;;;9.35;70.25;102120.81;5034448;28;20508;-62
2021/10/17 06:34:17;;;;;;;15.30;7.00;;;;;;;9.37;70.13;102124.25;5034349;28;20769;-63
2021/10/17 06:36:42;;;;;;;11.63;6.50;;;;;;;9.35;70.15;102124.34;5034338;28;20037;-61
2021/10/17 06:39:07;;;;;;;11.30;6.20;;;;;;;9.38;69.94;102115.31;5033995;28;20041;-61
2021/10/17 06:41:33;;;;;;;14.77;6.57;;;;;;;9.42;70.16;102119.44;5033991;28;20117;-61
2021/10/17 06:43:58;;;;;;;17.73;7.13;;;;;;;9.44;69.67;102121.03;5034315;28;20025;-62
2021/10/17 06:46:24;;;;;;;12.43;6.45;;;;;;;9.47;69.94;102123.44;5034221;28;20374;-67
2021/10/17 06:48:49;;;;;;;17.10;6.77;;;;;;;9.50;69.63;102121.53;5033923;28;20121;-62
2021/10/17 06:51:16;;;;;;;13.17;6.77;;;;;;;9.51;69.58;102129.41;5033960;28;20029;-62
2021/10/17 06:53:41;;;;;;;14.57;6.20;;;;;;;9.51;69.67;102121.41;5033442;28;20112;-62
2021/10/17 06:56:07;;;;;;;13.73;5.83;;;;;;;9.54;69.48;102129.16;5033843;28;20101;-62
2021/10/17 06:58:32;;;;;;;18.15;6.50;;;;;;;9.55;69.71;102130.03;5033759;28;20029;-62
2021/10/17 07:00:58;;;;;;;11.52;6.60;;;;;;;9.58;69.45;102125.31;5033820;28;20143;-65
2021/10/17 07:03:23;;;;;;;10.97;6.00;;;;;;;9.60;69.02;102126.06;5033774;28;20033;-63
2021/10/17 07:05:49;;;;;;;14.77;6.50;;;;;;;9.59;69.43;102116.38;5033680;28;20100;-61
2021/10/17 07:08:14;;;;;;;15.73;6.17;;;;;;;9.63;68.87;102123.16;5033201;28;20303;-63
2021/10/17 07:10:39;;;;;;;12.73;6.03;;;;;;;9.66;68.97;102116.75;5033546;28;20083;-62
2021/10/17 07:13:04;;;;;;;11.80;5.70;;;;;;;9.71;68.82;102119.09;5033448;28;20547;-62
2021/10/17 07:15:30;;;;;;;10.73;5.73;;;;;;;9.76;68.87;102117.78;5033686;28;20432;-61
2021/10/17 07:17:55;;;;;;;11.13;6.27;;;;;;;9.80;68.33;102121.06;5033583;28;20465;-64
2021/10/17 07:20:20;;;;;;;10.60;6.13;;;;;;;9.84;68.04;102122.53;5033409;28;20029;-61
2021/10/17 07:22:46;;;;;;;11.70;6.47;;;;;;;9.86;68.01;102120.59;5033544;28;20515;-62
2021/10/17 07:25:11;;;;;;;8.03;5.57;;;;;;;9.90;67.95;102124.75;5042560;23;20527;-67
2021/10/17 07:27:36;;;;;;;13.50;6.50;;;;;;;9.91;67.62;102126.41;5033323;28;20049;-61
2021/10/17 07:30:03;;;;;;;15.63;6.10;;;;;;;9.98;67.37;102121.50;5033232;28;20279;-63
2021/10/17 07:32:29;;;;;;;14.73;7.15;;;;;;;10.02;67.89;102122.09;5033448;28;20187;-61
2021/10/17 07:34:54;;;;;;;11.30;5.87;;;;;;;10.08;67.51;102118.97;5033366;28;20423;-61
2021/10/17 07:37:19;;;;;;;14.73;6.50;;;;;;;10.12;67.23;102118.63;5032750;28;20041;-61
2021/10/17 07:39:45;;;;;;;8.77;5.70;;;;;;;10.20;66.88;102122.50;5032437;28;20025;-61
2021/10/17 07:42:10;;;;;;;12.87;6.20;;;;;;;10.26;67.54;102130.88;5032988;28;20022;-61
2021/10/17 07:44:35;;;;;;;9.93;6.33;;;;;;;10.32;67.03;102131.38;5032901;28;20472;-61
2021/10/17 07:47:01;;;;;;;13.53;5.83;;;;;;;10.38;66.92;102136.28;5032980;28;20025;-67
2021/10/17 07:49:27;;;;;;;14.00;6.27;;;;;;;10.42;66.85;102135.91;5032650;28;20400;-64
2021/10/17 07:51:52;;;;;;;10.43;5.65;;;;;;;10.47;66.76;102132.91;5032525;28;20822;-65
2021/10/17 07:54:17;;;;;;;14.03;6.60;;;;;;;10.50;66.09;102137.97;5032403;28;20124;-61
2021/10/17 07:56:43;;;;;;;13.00;5.97;;;;;;;10.53;66.25;102136.88;5032638;28;20040;-62
2021/10/17 07:59:08;;;;;;;12.40;6.47;;;;;;;10.56;66.13;102142.84;5017045;28;20045;-61
2021/10/17 08:01:33;;;;;;;10.57;6.13;;;;;;;10.58;67.04;102142.72;5012905;28;20064;-62
2021/10/17 08:03:58;;;;;;;16.67;6.30;;;;;;;10.61;66.41;102145.13;5012918;28;20054;-61
2021/10/17 08:06:24;;;;;;;12.13;7.23;;;;;;;10.54;66.50;102144.75;5012829;28;20032;-62
2021/10/17 08:08:49;;;;;;;14.13;6.17;;;;;;;10.55;66.55;102146.47;5012844;28;20034;-65
2021/10/17 08:11:16;;;;;;;9.67;5.97;;;;;;;10.59;66.56;102139.91;5012537;28;20022;-61
2021/10/17 08:13:43;;;;;;;12.32;6.00;;;;;;;10.61;66.75;102138.00;5012643;28;20033;-67
2021/10/17 08:16:11;;;;;;;16.45;6.03;;;;;;;10.64;66.71;102142.25;5012532;28;20037;-62
2021/10/17 08:18:36;;;;;;;16.90;6.35;;;;;;;10.71;65.52;102139.94;5012703;28;20076;-61
2021/10/17 08:21:01;;;;;;;13.97;6.13;;;;;;;10.78;65.75;102139.34;5012686;28;20034;-61
2021/10/17 08:23:27;;;;;;;11.57;5.43;;;;;;;10.79;65.71;102145.50;5012549;28;20037;-61
2021/10/17 08:25:52;;;;;;;12.93;6.20;;;;;;;10.82;65.58;102142.63;5011879;28;20327;-62
2021/10/17 08:28:18;;;;;;;14.30;7.07;;;;;;;10.95;65.25;102143.34;5012412;28;20040;-61
2021/10/17 08:30:46;;;;;;;13.23;6.30;;;;;;;11.06;64.96;102144.31;5012238;28;20272;-61
2021/10/17 08:33:12;;;;;;;13.48;6.70;;;;;;;11.21;64.48;102139.53;5012543;28;20034;-62
2021/10/17 08:35:37;;;;;;;12.00;6.50;;;;;;;11.50;64.90;102149.69;5012360;28;20024;-65
2021/10/17 08:38:03;;;;;;;9.88;6.07;;;;;;;11.65;63.14;102145.75;5012563;28;20481;-66
2021/10/17 08:40:28;;;;;;;15.27;7.50;;;;;;;11.79;62.42;102145.47;5012469;28;20069;-64
2021/10/17 08:42:54;;;;;;;14.00;6.10;;;;;;;11.88;62.03;102141.16;5011931;28;20029;-69
2021/10/17 08:45:19;;;;;;;13.30;6.73;;;;;;;11.92;61.99;102147.97;5012259;28;20026;-67
2021/10/17 08:47:46;;;;;;;14.30;7.10;;;;;;;11.95;62.62;102139.72;5011900;28;20378;-69
2021/10/17 08:50:14;;;;;;;13.23;6.85;;;;;;;11.94;61.79;102137.13;4993371;28;20181;-60
2021/10/17 08:52:39;;;;;;;9.13;6.93;;;;;;;11.84;61.97;102133.53;5012271;28;20481;-61
2021/10/17 08:55:06;;;;;;;12.27;6.47;;;;;;;11.86;61.67;102134.25;5011188;28;20054;-63
2021/10/17 08:57:32;;;;;;;13.25;6.90;;;;;;;11.90;61.83;102141.03;5011791;28;20025;-70
2021/10/17 08:59:57;;;;;;;10.30;5.55;;;;;;;12.09;61.86;102143.88;5011984;28;20036;-62
2021/10/17 09:02:24;;;;;;;12.70;5.85;;;;;;;12.24;60.78;102138.19;5011364;28;20037;-64
2021/10/17 09:05:04;;;;;;;;;;;;;;;12.26;60.28;102136.25;5012426;28;20022;-61
2021/10/17 09:07:30;;;;;;;11.23;6.57;;;;;;;12.29;59.85;102134.19;5011484;28;20020;-71
2021/10/17 09:10:06;;;;;;;13.25;6.10;;;;;;;12.35;59.74;102135.47;5011654;28;20045;-61
2021/10/17 09:12:33;;;;;;;10.40;6.78;;;;;;;12.52;60.31;102136.69;5012048;28;20034;-62
2021/10/17 09:15:23;;;;;;;12.55;6.78;;;;;;;12.67;59.31;102139.84;5011702;28;20075;-66
2021/10/17 09:18:05;;;;;;;14.82;7.28;;;;;;;12.55;59.30;102139.09;5011492;28;20452;-72
2021/10/17 09:20:35;;;;;;;9.55;6.57;;;;;;;12.61;59.82;102143.09;4993922;28;20408;-66
2021/10/17 09:23:01;;;;;;;11.10;6.63;;;;;;;12.54;60.06;102142.78;5011594;28;20042;-61
2021/10/17 09:25:30;;;;;;;11.50;5.93;;;;;;;12.57;59.33;102153.19;5011088;28;20046;-63
2021/10/17 09:27:57;;;;;;;11.75;6.53;;;;;;;12.49;60.05;102150.34;5011069;28;20129;-61
2021/10/17 09:30:22;;;;;;;;;;;;;;;12.43;60.47;102150.84;5011822;28;20280;-61
2021/10/17 09:32:47;;;;;;;10.70;6.10;;;;;;;12.28;60.03;102140.50;5011499;28;20277;-64
2021/10/17 09:35:12;;;;;;;17.53;7.23;;;;;;;12.27;60.24;102136.13;5011288;28;20147;-72
2021/10/17 09:37:42;;;;;;;17.70;6.17;;;;;;;12.23;61.16;102141.88;5011183;28;20512;-61
2021/10/17 09:40:19;;;;;;;15.75;6.35;;;;;;;12.12;60.84;102148.09;5010919;28;20056;-61
2021/10/17 09:43:05;;;;;;;13.25;6.68;;;;;;;12.22;61.79;102153.53;5011056;28;20114;-62
2021/10/17 09:45:31;;;;;;;13.38;5.65;;;;;;;12.34;60.83;102149.81;5011114;28;20501;-68
2021/10/17 09:47:56;;;;;;;14.60;6.25;;;;;;;12.45;60.52;102147.06;5010961;28;20057;-66
2021/10/17 09:50:23;;;;;;;12.03;6.43;;;;;;;12.53;59.32;102151.75;5011059;28;20477;-67
2021/10/17 09:52:54;;;;;;;16.40;6.55;;;;;;;12.67;59.06;102152.38;5010924;28;20053;-60
2021/10/17 09:55:20;;;;;;;9.90;6.50;;;;;;;13.02;59.55;102151.13;5011286;28;20045;-60
2021/10/17 09:57:45;;;;;;;11.20;5.78;;;;;;;13.33;58.43;102153.75;5010878;28;20359;-61
2021/10/17 10:00:11;;;;;;;9.73;5.23;;;;;;;13.35;57.19;102152.63;5010682;28;20097;-61
2021/10/17 10:02:37;;;;;;;10.18;5.60;;;;;;;13.50;57.27;102154.94;5010688;28;20084;-64
2021/10/17 10:05:03;;;;;;;12.73;6.28;;;;;;;13.57;55.53;102148.06;5010996;28;20069;-62
2021/10/17 10:07:30;;;;;;;10.18;5.38;;;;;;;13.66;56.19;102149.03;5010667;28;20612;-60
2021/10/17 10:09:57;;;;;;;9.30;5.85;;;;;;;13.58;55.82;102145.22;5010737;28;20034;-64
2021/10/17 10:12:25;;;;;;;11.75;6.10;;;;;;;13.79;56.49;102138.91;5010647;28;20564;-62
2021/10/17 10:14:51;;;;;;;9.30;5.20;;;;;;;14.01;56.34;102147.63;5010445;28;20026;-61
2021/10/17 10:17:17;;;;;;;12.70;5.85;;;;;;;14.02;55.72;102142.13;5010753;28;20029;-63
2021/10/17 10:19:44;;;;;;;12.32;6.05;;;;;;;14.02;56.53;102139.44;5010703;28;20032;-61
2021/10/17 10:22:10;;;;;;;9.40;5.57;;;;;;;14.17;55.01;102137.19;5010638;28;20108;-74
2021/10/17 10:24:36;;;;;;;11.00;6.20;;;;;;;14.27;54.58;102143.38;5010630;28;20549;-61
2021/10/17 10:27:03;;;;;;;9.18;5.20;;;;;;;14.41;55.44;102143.91;5010944;28;20486;-61
2021/10/17 10:29:33;;;;;;;12.15;5.80;;;;;;;14.27;54.28;102142.53;5010511;28;20030;-62
2021/10/17 10:32:00;;;;;;;12.05;5.40;;;;;;;14.11;53.88;102140.44;5010687;28;20029;-67
2021/10/17 10:34:32;;;;;;;9.57;5.28;;;;;;;14.01;54.49;102150.31;5010504;28;20022;-66
2021/10/17 10:37:18;;;;;;;10.02;4.53;;;;;;;14.08;54.50;102149.59;5010282;28;20442;-61
2021/10/17 10:40:05;;;;;;;8.25;4.97;;;;;;;14.07;53.89;102144.38;5010316;28;20446;-62
2021/10/17 10:42:37;;;;;;;11.23;4.88;;;;;;;14.00;54.35;102137.88;5010571;28;20085;-63
2021/10/17 10:45:19;;;;;;;10.18;5.82;;;;;;;13.93;54.52;102149.19;5010674;28;20022;-66
2021/10/17 10:47:47;;;;;;;10.32;5.65;;;;;;;13.82;55.85;102145.81;5010582;28;20038;-61
2021/10/17 10:50:13;;;;;;;10.80;5.65;;;;;;;13.77;56.55;102147.06;5010466;28;20220;-60
2021/10/17 10:52:44;;;;;;;12.40;5.60;;;;;;;13.71;54.88;102133.38;5010329;28;20386;-65
2021/10/17 10:55:33;;;;;;;7.82;5.68;;;;;;;13.60;56.41;102147.75;5010450;28;20049;-63
2021/10/17 10:58:29;;;;;;;14.75;5.55;;;;;;;13.60;56.45;102159.34;5009964;28;20175;-61
2021/10/17 11:00:56;;;;;;;8.45;5.15;;;;;;;13.49;55.89;102158.59;5009933;28;20026;-61
2021/10/17 11:03:25;;;;;;;11.35;5.70;;;;;;;13.38;56.39;102156.88;5010153;28;20018;-61
2021/10/17 11:06:06;;;;;;;10.10;5.22;;;;;;;13.39;57.08;102153.22;5010257;28;20088;-65
2021/10/17 11:08:33;;;;;;;11.80;5.40;;;;;;;13.38;57.04;102152.41;5010423;28;20045;-62
2021/10/17 11:10:59;;;;;;;9.63;5.28;;;;;;;13.32;57.10;102152.06;5010301;28;20119;-69
2021/10/17 11:13:29;;;;;;;11.40;4.65;;;;;;;13.41;57.79;102145.94;5011521;28;20425;-64
2021/10/17 11:15:54;;;;;;;8.88;5.53;;;;;;;13.38;57.04;102143.50;5013677;28;20026;-67
2021/10/17 11:18:28;;;;;;;10.02;5.78;;;;;;;13.35;56.98;102143.75;5013752;28;20030;-65
2021/10/17 11:20:53;;;;;;;9.20;5.20;;;;;;;13.30;56.49;102138.81;4997264;28;20121;-61
2021/10/17 11:23:24;;;;;;;7.83;4.97;;;;;;;13.34;57.12;102134.03;5013625;28;20101;-61